Time;durP1;ratioP1;P1;durP2;ratioP2;P2;SDS_P1;SDS_P2;PMS_P1;PMS_P2;Temp;Humidity;BMP_temperature;BMP_pressure;BME280_temperature;BME280_humidity;BME280_pressure;Samples;Min_cycle;Max_cycle;Signal;HPM_P1;HPM_P2
2022/03/08 00:00:54;;;;;;;6.30;5.70;;;;;;;3.92;40.70;101010.38;10358510;28;20060;-62
2022/03/08 00:05:56;;;;;;;6.32;5.72;;;;;;;3.77;40.98;100999.56;10356042;28;20049;-62
2022/03/08 00:10:59;;;;;;;7.80;6.50;;;;;;;3.77;41.51;101011.84;10357616;28;20049;-61
2022/03/08 00:16:01;;;;;;;7.70;6.85;;;;;;;3.70;41.42;101021.78;10366608;28;20063;-62
2022/03/08 00:21:05;;;;;;;6.85;6.25;;;;;;;3.73;41.71;101011.13;10356541;28;20097;-62
2022/03/08 00:26:07;;;;;;;7.18;6.18;;;;;;;3.54;41.90;100996.06;10359296;28;20057;-63
2022/03/08 00:31:08;;;;;;;7.57;6.80;;;;;;;3.59;42.14;100998.53;10355545;28;20042;-60
2022/03/08 00:36:10;;;;;;;6.65;5.95;;;;;;;3.52;42.02;100997.91;10353642;28;20057;-63
2022/03/08 00:41:12;;;;;;;7.05;6.35;;;;;;;3.62;41.81;101003.66;10357981;28;20049;-60
2022/03/08 00:46:15;;;;;;;7.35;6.65;;;;;;;3.64;42.34;100993.06;10355503;28;20128;-61
2022/03/08 00:51:17;;;;;;;7.43;6.05;;;;;;;3.50;42.20;100977.84;10356089;28;20596;-60
2022/03/08 00:56:18;;;;;;;6.55;5.95;;;;;;;3.58;42.46;100982.78;10356476;28;20056;-60
2022/03/08 01:01:19;;;;;;;7.43;6.15;;;;;;;3.59;42.40;100979.22;10358369;28;20057;-60
2022/03/08 01:06:21;;;;;;;5.70;5.13;;;;;;;3.57;42.14;100965.28;10359509;28;20080;-61
2022/03/08 01:11:23;;;;;;;6.75;5.95;;;;;;;3.56;42.65;100960.91;10356693;28;20046;-63
2022/03/08 01:16:24;;;;;;;6.95;5.32;;;;;;;3.56;42.14;100948.63;10359695;28;20071;-62
2022/03/08 01:21:26;;;;;;;5.80;5.30;;;;;;;3.58;42.70;100957.31;10358465;28;20041;-60
2022/03/08 01:26:27;;;;;;;6.57;5.35;;;;;;;3.25;42.97;100912.16;10362952;28;20059;-61
2022/03/08 01:31:29;;;;;;;7.00;5.60;;;;;;;3.46;42.84;100942.84;10352735;28;20056;-60
2022/03/08 01:36:30;;;;;;;6.40;5.80;;;;;;;3.46;42.99;100950.75;10355011;28;20041;-60
2022/03/08 01:41:32;;;;;;;8.18;6.13;;;;;;;3.35;43.46;100934.56;10356441;28;20059;-59
2022/03/08 01:46:36;;;;;;;6.70;6.10;;;;;;;3.24;43.42;100913.06;10352530;28;20049;-60
2022/03/08 01:51:39;;;;;;;6.43;5.82;;;;;;;3.33;43.35;100937.25;10351589;28;20630;-60
2022/03/08 01:56:41;;;;;;;7.07;6.47;;;;;;;3.29;43.71;100932.16;10356767;28;22000;-60
2022/03/08 02:01:42;;;;;;;7.05;5.90;;;;;;;3.28;43.62;100936.56;10351261;28;20091;-61
2022/03/08 02:06:44;;;;;;;6.57;6.00;;;;;;;3.16;43.61;100906.31;10353003;28;20155;-60
2022/03/08 02:11:47;;;;;;;6.60;6.00;;;;;;;3.20;43.83;100907.06;10351300;28;20049;-60
2022/03/08 02:16:48;;;;;;;7.07;6.20;;;;;;;3.25;44.25;100927.94;10355218;28;20129;-60
2022/03/08 02:21:51;;;;;;;6.53;5.93;;;;;;;3.16;44.50;100919.47;10352422;28;20049;-60
2022/03/08 02:26:52;;;;;;;7.00;6.35;;;;;;;3.13;44.33;100911.69;10353158;28;20114;-61
2022/03/08 02:31:56;;;;;;;6.93;6.32;;;;;;;3.17;44.72;100896.66;10355911;28;20492;-61
2022/03/08 02:37:04;;;;;;;7.13;6.45;;;;;;;3.21;44.08;100903.50;10355547;28;20058;-60
2022/03/08 02:42:06;;;;;;;6.72;6.15;;;;;;;3.13;44.36;100902.97;10357903;28;20125;-59
2022/03/08 02:47:08;;;;;;;7.15;5.88;;;;;;;3.21;44.61;100900.00;10354963;28;20049;-60
2022/03/08 02:52:09;;;;;;;6.38;5.47;;;;;;;3.21;43.91;100878.97;10351454;28;20054;-61
2022/03/08 02:57:11;;;;;;;7.03;6.32;;;;;;;3.21;44.43;100892.13;10362492;28;20164;-63
2022/03/08 03:02:12;;;;;;;6.28;5.68;;;;;;;3.01;44.95;100891.13;10369699;28;20558;-59
2022/03/08 03:07:15;;;;;;;6.65;5.97;;;;;;;2.89;45.57;100883.72;10351074;28;20049;-60
2022/03/08 03:12:17;;;;;;;6.40;5.78;;;;;;;2.88;45.40;100903.03;10350257;28;20156;-58
2022/03/08 03:17:18;;;;;;;7.43;5.90;;;;;;;2.93;45.28;100895.84;10350898;28;20045;-59
2022/03/08 03:22:20;;;;;;;7.05;6.25;;;;;;;2.85;45.56;100874.22;10352942;28;20046;-61
2022/03/08 03:27:21;;;;;;;6.05;5.25;;;;;;;2.95;45.50;100891.38;10352762;28;20740;-59
2022/03/08 03:32:23;;;;;;;6.53;5.85;;;;;;;2.82;45.78;100886.59;10355647;28;20584;-59
2022/03/08 03:37:24;;;;;;;5.57;5.05;;;;;;;2.73;46.11;100886.94;10352432;28;20156;-59
2022/03/08 03:42:26;;;;;;;6.55;5.90;;;;;;;2.58;46.45;100874.34;10347690;28;20137;-59
2022/03/08 03:47:27;;;;;;;6.13;5.53;;;;;;;2.70;46.39;100897.53;10349648;28;20705;-61
2022/03/08 03:52:29;;;;;;;7.50;6.20;;;;;;;2.62;46.43;100889.09;10351310;28;20084;-63
2022/03/08 03:57:30;;;;;;;6.75;5.68;;;;;;;2.61;46.66;100877.75;10348410;28;20061;-62
2022/03/08 04:02:32;;;;;;;5.85;5.25;;;;;;;2.54;46.62;100864.88;10349669;28;20129;-61
2022/03/08 04:07:34;;;;;;;5.97;5.40;;;;;;;2.61;46.77;100887.38;10347912;28;20041;-60
2022/03/08 04:12:35;;;;;;;7.18;6.47;;;;;;;2.56;46.53;100884.06;10346784;28;20067;-60
2022/03/08 04:17:37;;;;;;;6.82;5.65;;;;;;;2.59;46.95;100878.72;10353208;28;20093;-63
2022/03/08 04:22:38;;;;;;;6.55;5.93;;;;;;;2.51;47.11;100875.50;10358872;28;20179;-60
2022/03/08 04:27:40;;;;;;;6.30;5.70;;;;;;;2.48;47.37;100874.69;10359276;28;20045;-61
2022/03/08 04:32:41;;;;;;;7.68;6.97;;;;;;;2.47;46.89;100867.72;10354368;28;20081;-62
2022/03/08 04:37:42;;;;;;;6.72;6.13;;;;;;;2.36;47.04;100843.63;10357644;28;20059;-61
2022/03/08 04:42:44;;;;;;;6.70;6.13;;;;;;;2.44;47.33;100853.84;10356491;28;20136;-62
2022/03/08 04:47:46;;;;;;;6.45;5.85;;;;;;;2.42;47.47;100851.28;10359338;28;20771;-63
2022/03/08 04:52:49;;;;;;;7.60;6.05;;;;;;;2.43;47.41;100847.75;10359466;28;20046;-59
2022/03/08 04:57:50;;;;;;;8.43;6.70;;;;;;;2.32;47.60;100836.75;10356554;28;20608;-61
2022/03/08 05:02:52;;;;;;;7.13;6.50;;;;;;;2.45;47.28;100851.16;10358323;28;20045;-57
2022/03/08 05:07:53;;;;;;;8.02;7.05;;;;;;;2.39;47.00;100843.50;10359078;28;20216;-62
2022/03/08 05:12:55;;;;;;;7.00;6.40;;;;;;;2.38;46.46;100844.41;10352866;28;20653;-60
2022/03/08 05:17:56;;;;;;;7.40;6.43;;;;;;;2.32;47.13;100836.75;10352998;28;20101;-60
2022/03/08 05:23:00;;;;;;;7.35;6.22;;;;;;;2.35;47.06;100847.16;10352738;28;20045;-59
2022/03/08 05:28:02;;;;;;;6.63;6.00;;;;;;;2.21;47.80;100839.78;10355106;28;20053;-62
2022/03/08 05:33:03;;;;;;;8.10;6.55;;;;;;;2.21;47.72;100863.44;10357586;28;20132;-60
2022/03/08 05:38:04;;;;;;;6.22;5.63;;;;;;;2.11;47.66;100868.13;10357727;28;20128;-59
2022/03/08 05:43:06;;;;;;;7.30;6.57;;;;;;;2.15;47.71;100862.78;10359198;28;20050;-62
2022/03/08 05:48:07;;;;;;;9.57;7.63;;;;;;;2.02;47.53;100852.72;10355965;28;20049;-61
2022/03/08 05:53:09;;;;;;;8.02;7.22;;;;;;;2.09;47.57;100863.88;10354842;28;20577;-61
2022/03/08 05:58:10;;;;;;;7.80;7.03;;;;;;;1.99;47.96;100863.31;10335484;28;20057;-63
2022/03/08 06:03:11;;;;;;;9.38;7.30;;;;;;;2.07;48.23;100877.06;10331775;28;20049;-61
2022/03/08 06:08:14;;;;;;;9.25;7.63;;;;;;;1.87;48.10;100864.59;10334398;28;20084;-63
2022/03/08 06:13:16;;;;;;;8.43;7.53;;;;;;;2.01;47.78;100897.41;10333622;28;20144;-62
2022/03/08 06:18:17;;;;;;;7.45;6.75;;;;;;;2.05;48.53;100878.88;10335640;28;20124;-61
2022/03/08 06:23:18;;;;;;;8.13;7.18;;;;;;;2.03;47.93;100875.44;10336062;28;20073;-64
2022/03/08 06:28:20;;;;;;;8.63;7.63;;;;;;;2.16;47.52;100877.63;10342138;28;20128;-64
2022/03/08 06:33:21;;;;;;;9.15;7.28;;;;;;;2.29;47.42;100884.16;10341761;28;20068;-63
2022/03/08 06:38:23;;;;;;;8.18;6.97;;;;;;;2.47;47.22;100885.28;10338385;28;20064;-61
2022/03/08 06:43:24;;;;;;;9.70;7.65;;;;;;;2.68;47.10;100898.53;10340993;28;20151;-61
2022/03/08 06:48:25;;;;;;;8.00;7.05;;;;;;;2.80;46.69;100904.19;10334842;28;20440;-58
2022/03/08 06:53:27;;;;;;;8.30;7.50;;;;;;;2.95;45.93;100897.47;10341251;28;20108;-62
2022/03/08 06:58:28;;;;;;;7.63;6.93;;;;;;;3.15;45.43;100896.72;10340042;28;20050;-63
2022/03/08 07:03:29;;;;;;;8.10;7.30;;;;;;;3.44;45.14;100909.63;10342878;28;20064;-62
2022/03/08 07:08:31;;;;;;;8.15;7.32;;;;;;;3.46;45.31;100902.53;10342019;28;20132;-63
2022/03/08 07:13:32;;;;;;;8.48;7.57;;;;;;;3.69;45.03;100914.75;10343485;28;20164;-61
2022/03/08 07:18:35;;;;;;;8.52;7.28;;;;;;;3.86;43.99;100912.28;10345880;28;20060;-61
2022/03/08 07:23:36;;;;;;;7.50;6.80;;;;;;;4.01;43.64;100915.19;10342101;28;20520;-62
2022/03/08 07:28:38;;;;;;;7.25;6.65;;;;;;;4.27;43.16;100923.75;10340596;28;20046;-65
2022/03/08 07:33:41;;;;;;;7.78;7.07;;;;;;;4.40;42.90;100919.66;10338522;28;21772;-61
2022/03/08 07:38:42;;;;;;;7.93;7.22;;;;;;;4.59;42.30;100906.50;10335413;28;20061;-61
2022/03/08 07:43:44;;;;;;;7.75;7.05;;;;;;;4.85;42.01;100907.97;10339670;28;20420;-62
2022/03/08 07:48:45;;;;;;;8.00;7.22;;;;;;;4.98;41.98;100896.81;10336288;28;20053;-63
2022/03/08 07:54:07;;;;;;;10.48;7.65;;;;;;;5.30;41.29;100890.03;10344447;28;20045;-60
2022/03/08 07:59:09;;;;;;;8.48;7.40;;;;;;;5.47;40.88;100899.75;10345795;28;20055;-61
2022/03/08 08:04:10;;;;;;;7.88;7.07;;;;;;;5.49;41.05;100904.03;10346306;28;20077;-60
2022/03/08 08:09:12;;;;;;;7.40;6.75;;;;;;;5.84;40.34;100903.22;10343752;28;20402;-62
2022/03/08 08:14:14;;;;;;;8.57;7.72;;;;;;;6.10;39.99;100904.56;10342611;28;20073;-64
2022/03/08 08:19:15;;;;;;;9.70;8.45;;;;;;;6.32;39.42;100899.03;10341597;28;20050;-60
2022/03/08 08:24:17;;;;;;;13.30;8.02;;;;;;;6.47;39.31;100912.34;10339596;28;20468;-62
2022/03/08 08:29:18;;;;;;;10.48;7.80;;;;;;;6.72;38.98;100891.63;10339103;28;20054;-61
2022/03/08 08:34:19;;;;;;;9.13;7.63;;;;;;;7.08;38.25;100902.91;10338458;28;20063;-61
2022/03/08 08:39:21;;;;;;;9.10;7.38;;;;;;;6.92;38.31;100868.50;10338351;28;20054;-60
2022/03/08 08:44:25;;;;;;;9.23;8.10;;;;;;;7.53;37.78;100903.88;10344814;28;22783;-60
2022/03/08 08:49:27;;;;;;;8.85;7.95;;;;;;;7.41;37.82;100888.69;10337390;28;20188;-60
2022/03/08 08:54:34;;;;;;;9.32;8.05;;;;;;;7.86;37.38;100892.25;10340666;28;20053;-60
2022/03/08 08:59:35;;;;;;;11.60;7.95;;;;;;;7.97;36.92;100886.31;10336551;28;20119;-60
2022/03/08 09:04:37;;;;;;;8.77;7.88;;;;;;;8.47;35.93;100890.41;10340115;28;20119;-62
2022/03/08 09:09:38;;;;;;;8.48;7.65;;;;;;;8.74;35.49;100881.69;10337698;28;20481;-60
2022/03/08 09:14:39;;;;;;;9.30;8.32;;;;;;;9.34;34.84;100884.97;10338230;28;20089;-62
2022/03/08 09:19:41;;;;;;;9.18;8.18;;;;;;;9.71;33.90;100878.09;10342443;28;20115;-61
2022/03/08 09:24:42;;;;;;;8.70;7.85;;;;;;;9.80;34.16;100865.94;10331957;28;20235;-64
2022/03/08 09:29:44;;;;;;;9.07;8.18;;;;;;;10.32;32.56;100864.19;10337236;28;20618;-62
2022/03/08 09:34:45;;;;;;;8.82;7.53;;;;;;;10.78;31.98;100857.47;10336413;28;20268;-61
2022/03/08 09:39:47;;;;;;;8.40;7.30;;;;;;;11.26;31.19;100851.31;10333585;28;20065;-63
2022/03/08 09:44:49;;;;;;;8.15;7.35;;;;;;;11.58;30.23;100850.75;10334704;28;20050;-66
2022/03/08 09:49:50;;;;;;;8.07;7.30;;;;;;;11.91;29.88;100851.84;10334183;28;20042;-63
2022/03/08 09:54:52;;;;;;;7.93;7.05;;;;;;;12.37;28.97;100854.47;10334981;28;20762;-64
2022/03/08 10:00:04;;;;;;;8.63;6.60;;;;;;;12.63;28.34;100843.53;10339682;28;20072;-62
2022/03/08 10:05:07;;;;;;;6.95;5.72;;;;;;;13.34;26.89;100835.16;10337424;28;20091;-62
2022/03/08 10:10:08;;;;;;;7.20;6.53;;;;;;;14.03;25.96;100833.00;10339639;28;20041;-61
2022/03/08 10:15:30;;;;;;;7.07;6.05;;;;;;;15.92;23.40;100841.22;10337408;28;20049;-61
2022/03/08 10:20:33;;;;;;;7.57;5.95;;;;;;;19.35;19.76;100827.34;10336855;28;20833;-64
2022/03/08 10:25:34;;;;;;;5.97;5.37;;;;;;;20.69;18.00;100813.44;10335818;28;20047;-63
2022/03/08 10:30:44;;;;;;;7.13;6.45;;;;;;;20.69;17.95;100810.75;10337020;28;20053;-59
2022/03/08 10:35:53;;;;;;;7.03;6.45;;;;;;;18.68;19.63;100797.63;10340174;28;20228;-60
2022/03/08 10:40:54;;;;;;;8.10;7.18;;;;;;;18.19;20.51;100804.50;10339261;28;20176;-59
2022/03/08 10:45:56;;;;;;;5.95;5.45;;;;;;;18.80;20.23;100800.88;10339864;28;20060;-60
2022/03/08 10:51:12;;;;;;;7.13;6.40;;;;;;;21.85;17.06;100787.28;10340413;28;20045;-61
2022/03/08 10:56:22;;;;;;;6.32;5.80;;;;;;;25.58;13.73;100765.97;10337573;28;20064;-60
2022/03/08 11:01:24;;;;;;;6.28;5.78;;;;;;;27.25;12.23;100757.19;10339330;28;20057;-59
2022/03/08 11:06:25;;;;;;;6.30;4.72;;;;;;;27.90;11.58;100763.38;10341918;28;20060;-62
2022/03/08 11:11:27;;;;;;;6.80;4.60;;;;;;;28.84;10.86;100744.81;10337454;28;20550;-62
2022/03/08 11:16:30;;;;;;;7.73;5.50;;;;;;;29.44;10.67;100734.84;10338988;28;20659;-62
2022/03/08 11:21:34;;;;;;;4.88;3.88;;;;;;;30.38;9.45;100730.31;10338245;28;20049;-65
2022/03/08 11:26:37;;;;;;;4.93;3.42;;;;;;;29.64;9.35;100722.69;10344538;28;20423;-63
2022/03/08 11:31:40;;;;;;;3.40;3.10;;;;;;;29.94;9.07;100731.63;10346418;28;20142;-63
2022/03/08 11:36:52;;;;;;;2.92;2.70;;;;;;;30.97;8.49;100711.69;10338081;28;20063;-60
2022/03/08 11:41:57;;;;;;;7.00;3.35;;;;;;;32.04;8.21;100719.94;10344888;28;20104;-60
2022/03/08 11:47:14;;;;;;;5.28;3.08;;;;;;;30.59;8.33;100704.94;10343521;28;20633;-60
2022/03/08 11:52:27;;;;;;;4.05;3.13;;;;;;;31.58;8.14;100713.78;10340070;28;20051;-61
2022/03/08 11:57:55;;;;;;;3.60;3.30;;;;;;;32.16;7.50;100710.72;10340798;28;20060;-61
2022/03/08 12:03:05;;;;;;;3.03;2.83;;;;;;;31.68;7.63;100710.38;10341845;28;20053;-61
2022/03/08 12:08:21;;;;;;;5.15;3.72;;;;;;;32.55;7.49;100699.63;10342542;28;20073;-61
2022/03/08 12:13:37;;;;;;;6.47;2.97;;;;;;;32.59;7.16;100682.31;10360110;28;20052;-64
2022/03/08 12:18:49;;;;;;;5.15;3.17;;;;;;;32.22;7.49;100687.69;10343028;28;20140;-63
2022/03/08 12:23:56;;;;;;;3.28;2.95;;;;;;;33.77;6.91;100679.69;10342231;28;20146;-63
2022/03/08 12:29:04;;;;;;;3.65;3.10;;;;;;;35.22;6.58;100672.53;10343955;28;20049;-64
2022/03/08 12:34:06;;;;;;;5.95;3.17;;;;;;;35.79;5.89;100667.72;10343076;28;20261;-65
2022/03/08 12:39:57;;;;;;;2.95;2.65;;;;;;;35.79;6.15;100666.91;10341450;28;20689;-63
2022/03/08 12:45:04;;;;;;;3.30;2.70;;;;;;;35.08;6.03;100658.44;10326550;28;20161;-63
2022/03/08 12:50:12;;;;;;;3.92;2.97;;;;;;;34.64;6.13;100648.75;10355898;28;20049;-64
2022/03/08 12:55:20;;;;;;;4.55;2.70;;;;;;;34.66;6.36;100654.00;10342652;28;20054;-65
2022/03/08 13:00:30;;;;;;;3.38;3.08;;;;;;;34.68;5.89;100646.25;10358600;28;20104;-66
2022/03/08 13:05:34;;;;;;;6.10;2.78;;;;;;;35.07;5.95;100651.28;10337847;28;20061;-64
2022/03/08 13:10:36;;;;;;;4.45;3.00;;;;;;;35.38;5.46;100634.63;10340123;28;20838;-64
2022/03/08 13:15:58;;;;;;;5.00;2.60;;;;;;;35.54;5.65;100643.72;10340841;28;20061;-64
2022/03/08 13:21:00;;;;;;;3.78;2.67;;;;;;;34.37;6.22;100643.47;10338998;28;20049;-63
2022/03/08 13:26:06;;;;;;;2.85;2.55;;;;;;;34.84;6.25;100638.81;10341354;28;20122;-65
2022/03/08 13:31:12;;;;;;;3.22;2.92;;;;;;;34.87;5.91;100647.38;10335204;28;20715;-65
2022/03/08 13:36:15;;;;;;;3.10;2.80;;;;;;;35.03;6.22;100645.44;10338789;28;20878;-66
2022/03/08 13:41:21;;;;;;;3.38;2.83;;;;;;;34.38;5.92;100645.13;10337063;28;20042;-63
2022/03/08 13:46:28;;;;;;;2.92;2.35;;;;;;;34.30;5.66;100642.91;10338383;28;20139;-61
2022/03/08 13:51:32;;;;;;;3.17;2.72;;;;;;;33.58;6.09;100626.00;10335101;28;20068;-61
2022/03/08 13:56:42;;;;;;;3.53;2.70;;;;;;;33.52;6.01;100622.41;10344549;28;20144;-62
2022/03/08 14:01:57;;;;;;;3.13;2.53;;;;;;;34.61;5.93;100616.13;10336330;28;20051;-63
2022/03/08 14:07:00;;;;;;;4.10;3.20;;;;;;;34.66;5.74;100634.66;10336600;28;20056;-64
2022/03/08 14:12:04;;;;;;;4.70;3.05;;;;;;;33.96;5.93;100632.25;10346557;28;20464;-65
2022/03/08 14:17:05;;;;;;;3.17;2.72;;;;;;;33.79;5.89;100635.25;10336771;28;20573;-65
2022/03/08 14:22:07;;;;;;;5.38;3.03;;;;;;;32.05;6.94;100632.66;10335169;28;20757;-63
2022/03/08 14:27:11;;;;;;;3.88;2.65;;;;;;;32.58;6.60;100621.97;10335970;28;20079;-62
2022/03/08 14:32:12;;;;;;;2.65;2.45;;;;;;;32.77;6.63;100634.28;10341372;28;20052;-64
2022/03/08 14:37:14;;;;;;;3.67;2.55;;;;;;;31.73;6.65;100623.19;10338739;28;20054;-62
2022/03/08 14:42:18;;;;;;;2.67;2.28;;;;;;;27.72;8.28;100625.56;10337569;28;20247;-64
2022/03/08 14:47:21;;;;;;;4.22;2.83;;;;;;;23.01;11.70;100637.41;10355889;28;20121;-63
2022/03/08 14:52:27;;;;;;;4.20;3.17;;;;;;;20.62;13.63;100632.91;10338736;28;20050;-64
2022/03/08 14:57:28;;;;;;;4.47;3.60;;;;;;;18.96;14.54;100644.50;10337583;28;20106;-64
2022/03/08 15:02:30;;;;;;;6.60;4.35;;;;;;;17.92;15.34;100626.91;10339611;28;20061;-63
2022/03/08 15:07:31;;;;;;;4.27;3.87;;;;;;;17.52;16.29;100649.91;10335926;28;20151;-65
2022/03/08 15:12:33;;;;;;;5.45;3.85;;;;;;;16.51;17.18;100638.50;10332828;28;20049;-63
2022/03/08 15:17:34;;;;;;;4.50;4.10;;;;;;;16.00;17.71;100624.72;10339195;28;20578;-65
2022/03/08 15:22:36;;;;;;;6.05;4.22;;;;;;;15.71;18.06;100635.53;10336942;28;20519;-64
2022/03/08 15:27:37;;;;;;;5.25;4.75;;;;;;;15.43;18.78;100626.59;10337300;28;20733;-65
2022/03/08 15:32:39;;;;;;;4.65;4.15;;;;;;;14.77;19.38;100625.59;10337175;28;20062;-65
2022/03/08 15:37:40;;;;;;;5.95;4.28;;;;;;;14.41;19.66;100627.94;10333726;28;20112;-62
2022/03/08 15:42:42;;;;;;;6.57;4.88;;;;;;;13.89;20.37;100612.06;10332508;28;20471;-61
2022/03/08 15:47:43;;;;;;;5.18;4.68;;;;;;;13.73;20.65;100613.41;10332774;28;20111;-62
2022/03/08 15:52:45;;;;;;;7.25;5.43;;;;;;;13.47;20.73;100613.03;10333523;28;20084;-61
2022/03/08 15:57:46;;;;;;;4.82;4.32;;;;;;;13.14;21.02;100611.41;10333760;28;20484;-61
2022/03/08 16:02:47;;;;;;;5.93;4.25;;;;;;;13.26;21.08;100607.69;10341519;28;20063;-61
2022/03/08 16:07:49;;;;;;;5.15;4.30;;;;;;;12.92;21.43;100618.56;10331039;28;20398;-62
2022/03/08 16:12:51;;;;;;;5.85;4.07;;;;;;;12.89;21.54;100618.84;10340069;28;20050;-61
2022/03/08 16:17:52;;;;;;;5.32;4.40;;;;;;;12.59;21.95;100600.91;10341905;28;20373;-61
2022/03/08 16:22:58;;;;;;;5.35;4.85;;;;;;;12.39;22.16;100608.75;10340773;28;20887;-61
2022/03/08 16:28:00;;;;;;;5.32;4.50;;;;;;;12.11;22.27;100615.50;10343858;28;20060;-60
2022/03/08 16:33:02;;;;;;;5.20;4.70;;;;;;;12.00;22.42;100608.34;10333447;28;20054;-61
2022/03/08 16:38:05;;;;;;;7.15;4.65;;;;;;;11.98;22.73;100616.50;10338481;28;20052;-62
2022/03/08 16:43:06;;;;;;;6.13;4.97;;;;;;;11.61;23.10;100602.56;10339242;28;20059;-62
2022/03/08 16:48:08;;;;;;;6.90;5.03;;;;;;;11.61;23.21;100622.06;10340609;28;20057;-62
2022/03/08 16:53:09;;;;;;;6.82;5.38;;;;;;;11.47;23.43;100604.47;10341487;28;20055;-62
2022/03/08 16:58:10;;;;;;;8.05;6.18;;;;;;;11.20;23.75;100602.16;10346691;28;20053;-61
2022/03/08 17:03:12;;;;;;;6.75;5.78;;;;;;;11.14;24.38;100619.47;10336894;28;20045;-61
2022/03/08 17:08:14;;;;;;;10.00;6.53;;;;;;;11.04;24.57;100623.81;10338793;28;20057;-63
2022/03/08 17:13:19;;;;;;;6.10;5.07;;;;;;;10.88;24.97;100618.78;10340432;28;20045;-62
2022/03/08 17:18:20;;;;;;;6.53;5.70;;;;;;;10.76;25.33;100620.59;10341648;28;20111;-61
2022/03/08 17:23:22;;;;;;;6.05;5.45;;;;;;;10.74;25.35;100629.66;10342496;28;20076;-62
2022/03/08 17:28:25;;;;;;;6.85;6.05;;;;;;;10.73;25.43;100630.59;10342718;28;20480;-61
2022/03/08 17:33:26;;;;;;;8.77;5.70;;;;;;;10.69;25.50;100650.44;10341553;28;20148;-62
2022/03/08 17:38:28;;;;;;;6.18;5.63;;;;;;;10.64;25.55;100669.41;10328820;28;20057;-61
2022/03/08 17:43:29;;;;;;;7.25;6.63;;;;;;;10.64;25.63;100668.56;10332739;28;20149;-62
2022/03/08 17:48:32;;;;;;;7.32;6.28;;;;;;;10.33;25.98;100663.69;10339530;28;20061;-61
2022/03/08 17:53:33;;;;;;;9.52;6.45;;;;;;;10.21;26.10;100672.56;10338541;28;20069;-62
2022/03/08 17:58:35;;;;;;;7.93;6.70;;;;;;;9.82;26.65;100639.88;10338673;28;20937;-62
2022/03/08 18:03:36;;;;;;;13.15;11.10;;;;;;;9.96;27.09;100679.59;10336533;28;20052;-62
2022/03/08 18:08:38;;;;;;;6.38;5.43;;;;;;;9.90;27.01;100680.88;10342512;28;20705;-63
2022/03/08 18:13:39;;;;;;;8.55;5.03;;;;;;;9.69;27.13;100679.75;10336906;28;20170;-62
2022/03/08 18:18:41;;;;;;;8.30;6.15;;;;;;;9.50;27.45;100667.75;10334023;28;20074;-61
2022/03/08 18:23:43;;;;;;;9.13;5.72;;;;;;;9.55;27.49;100692.19;10341762;28;20058;-62
2022/03/08 18:28:44;;;;;;;8.18;5.78;;;;;;;9.56;27.30;100687.72;10343145;28;20836;-62
2022/03/08 18:33:46;;;;;;;7.28;6.55;;;;;;;9.50;27.54;100691.69;10341390;28;20053;-63
2022/03/08 18:38:47;;;;;;;7.88;6.82;;;;;;;9.42;27.93;100690.50;10338523;28;20857;-62
2022/03/08 18:43:52;;;;;;;10.02;7.47;;;;;;;9.38;27.88;100701.34;10341434;28;20054;-62
2022/03/08 18:48:55;;;;;;;9.85;8.75;;;;;;;9.28;28.19;100688.78;10341133;28;20060;-64
2022/03/08 18:53:56;;;;;;;10.98;7.80;;;;;;;9.28;28.59;100702.91;10344014;28;20563;-66
2022/03/08 18:58:58;;;;;;;9.30;8.30;;;;;;;9.35;28.45;100716.63;10346492;28;20059;-63
2022/03/08 19:04:00;;;;;;;9.15;8.25;;;;;;;9.30;28.28;100713.44;10340664;28;20123;-62
2022/03/08 19:09:02;;;;;;;10.63;9.48;;;;;;;9.25;28.87;100715.53;10340407;28;20072;-61
2022/03/08 19:14:03;;;;;;;9.05;7.88;;;;;;;9.32;30.07;100716.81;10342863;28;20369;-60
2022/03/08 19:19:05;;;;;;;11.50;9.20;;;;;;;9.18;30.25;100710.63;10338849;28;20366;-62
2022/03/08 19:24:06;;;;;;;10.70;9.00;;;;;;;9.32;30.38;100727.44;10344728;28;20049;-61
2022/03/08 19:29:09;;;;;;;11.18;8.57;;;;;;;9.16;29.50;100723.19;10338451;28;20045;-62
2022/03/08 19:34:12;;;;;;;9.88;8.80;;;;;;;9.02;29.76;100728.56;10340749;28;20827;-63
2022/03/08 19:39:14;;;;;;;10.18;8.45;;;;;;;8.78;29.54;100713.31;10340544;28;20049;-62
2022/03/08 19:44:35;;;;;;;9.52;6.88;;;;;;;8.82;29.82;100730.72;10337134;28;20528;-61
2022/03/08 19:49:37;;;;;;;10.13;8.32;;;;;;;8.74;30.14;100727.72;10341518;28;20669;-62
2022/03/08 19:54:38;;;;;;;11.45;8.63;;;;;;;8.71;30.38;100716.44;10349021;28;20119;-62
2022/03/08 19:59:40;;;;;;;13.82;7.43;;;;;;;8.75;31.39;100728.56;10346076;28;20060;-62
2022/03/08 20:04:41;;;;;;;9.07;7.10;;;;;;;8.52;30.34;100716.81;10343290;28;20060;-61
2022/03/08 20:09:42;;;;;;;8.23;7.32;;;;;;;8.38;30.32;100710.56;10344227;28;20061;-62
2022/03/08 20:14:45;;;;;;;9.98;7.07;;;;;;;8.42;30.66;100738.59;10337270;28;20611;-62
2022/03/08 20:19:46;;;;;;;8.85;6.93;;;;;;;8.23;30.79;100719.50;10338867;28;20593;-61
2022/03/08 20:24:47;;;;;;;9.77;8.02;;;;;;;8.22;30.29;100726.56;10336542;28;20636;-62
2022/03/08 20:29:49;;;;;;;9.57;8.38;;;;;;;8.09;30.08;100726.50;10343871;28;20053;-61
2022/03/08 20:34:50;;;;;;;10.18;8.32;;;;;;;8.19;30.39;100747.16;10344976;28;20067;-61
2022/03/08 20:39:52;;;;;;;10.70;7.82;;;;;;;8.14;30.22;100750.94;10342343;28;20188;-61
2022/03/08 20:44:53;;;;;;;11.07;8.40;;;;;;;8.04;30.34;100752.44;10332595;28;20545;-61
2022/03/08 20:49:55;;;;;;;10.52;8.15;;;;;;;7.99;30.55;100757.19;10338008;28;20120;-61
2022/03/08 20:54:58;;;;;;;12.10;9.00;;;;;;;7.93;30.79;100757.56;10332027;28;20242;-62
2022/03/08 21:00:01;;;;;;;8.57;7.47;;;;;;;7.88;30.71;100762.28;10351597;28;20152;-61
2022/03/08 21:05:06;;;;;;;9.57;7.75;;;;;;;7.73;31.02;100762.28;10363454;28;20275;-65
2022/03/08 21:10:08;;;;;;;9.70;7.50;;;;;;;7.61;31.02;100773.59;10364217;28;20059;-63
2022/03/08 21:15:09;;;;;;;9.57;7.57;;;;;;;7.55;31.37;100768.69;10341983;28;20148;-62
2022/03/08 21:20:11;;;;;;;10.02;8.07;;;;;;;7.53;31.50;100781.19;10342112;28;20471;-61
2022/03/08 21:25:13;;;;;;;12.80;9.20;;;;;;;7.47;31.80;100773.59;10340910;28;20058;-61
2022/03/08 21:30:15;;;;;;;11.57;8.30;;;;;;;7.47;31.91;100790.34;10344785;28;20068;-63
2022/03/08 21:35:16;;;;;;;10.27;8.63;;;;;;;7.48;31.89;100793.84;10341773;28;20500;-64
2022/03/08 21:40:18;;;;;;;9.00;8.10;;;;;;;7.38;32.07;100794.38;10338901;28;20072;-61
2022/03/08 21:45:20;;;;;;;8.45;7.65;;;;;;;7.20;32.60;100798.09;10340213;28;20077;-61
2022/03/08 21:50:21;;;;;;;9.77;8.25;;;;;;;7.08;32.76;100810.25;10340966;28;20061;-61
2022/03/08 21:55:23;;;;;;;11.35;8.55;;;;;;;7.05;32.91;100808.59;10342324;28;20571;-62
2022/03/08 22:00:25;;;;;;;8.82;7.90;;;;;;;7.06;33.02;100810.31;10338309;28;20068;-62
2022/03/08 22:05:27;;;;;;;9.38;7.32;;;;;;;6.86;33.11;100797.34;10337186;28;20232;-59
2022/03/08 22:10:28;;;;;;;9.55;8.07;;;;;;;6.78;33.56;100795.16;10336559;28;20195;-61
2022/03/08 22:15:30;;;;;;;9.48;7.80;;;;;;;6.80;33.31;100803.00;10335007;28;20057;-62
2022/03/08 22:20:31;;;;;;;9.00;8.05;;;;;;;6.89;33.56;100810.41;10343262;28;20056;-62
2022/03/08 22:25:33;;;;;;;9.77;8.48;;;;;;;6.82;33.66;100817.00;10343252;28;20475;-63
2022/03/08 22:30:34;;;;;;;12.40;9.15;;;;;;;6.65;33.69;100799.41;10340871;28;20057;-61
2022/03/08 22:35:36;;;;;;;11.07;8.35;;;;;;;6.75;34.33;100815.66;10339005;28;20049;-62
2022/03/08 22:40:37;;;;;;;10.32;8.45;;;;;;;6.68;34.29;100816.00;10339102;28;20874;-62
2022/03/08 22:45:39;;;;;;;8.63;7.82;;;;;;;6.49;34.19;100807.34;10340990;28;20057;-62
2022/03/08 22:56:01;;;;;;;10.10;7.40;;;;;;;6.64;34.94;100835.59;10354765;28;20048;-63
2022/03/08 23:01:04;;;;;;;9.45;8.23;;;;;;;6.64;34.70;100843.53;10356299;28;20050;-62
2022/03/08 23:06:05;;;;;;;10.25;8.68;;;;;;;6.34;35.18;100849.53;10355082;28;20103;-62
2022/03/08 23:11:07;;;;;;;8.77;7.75;;;;;;;6.32;35.42;100848.78;10351641;28;20061;-62
2022/03/08 23:16:09;;;;;;;10.88;8.55;;;;;;;6.18;35.40;100840.72;10356795;28;20046;-62
2022/03/08 23:21:10;;;;;;;11.70;9.77;;;;;;;6.03;35.89;100844.16;10358890;28;20052;-64
2022/03/08 23:26:12;;;;;;;9.88;7.95;;;;;;;5.94;36.27;100851.59;10363261;28;20058;-62